As Floriana — CQFU — position and weather

sailwx.info

Track history (hours):
 
Tides and Currents Weather Stations Pressure Air Temp Water Temp Dewpoint Dewpoint Depression Visibility Wind Speed Wind Dir Waves Ship Positions

As Floriana

Last reported at 2017-Nov-18 10:14 UTC. Time now 2017-Nov-24 09:28 UTC.
Position N 31°24' E 032°26'.

Length 166 m; draft 9.6 m.

Type: Cargo ship. MMSI: 255805622.

Date/timePositionNaut miles runAvg speedWind from/ knotsBaromVisibWave heightAir tempDewpointWater temp
2017-Nov-18 10:14N 31°24' E 032°26'0 0.0
2017-Nov-18 09:59N 31°24' E 032°26'0 0.0
2017-Nov-18 09:23N 31°24' E 032°26'0 0.0
2017-Nov-18 08:13N 31°24' E 032°26'34 5.7
2017-Nov-18 02:21N 31°45' E 031°56'4 9.4
2017-Nov-18 01:56N 31°48' E 031°52'17 9.5
2017-Nov-18 00:06N 31°59' E 031°37'27 9.4
2017-Nov-17 21:13N 32°19' E 031°15'3 9.2
2017-Nov-17 20:56N 32°21' E 031°13'4 9.1
2017-Nov-17 20:30N 32°24' E 031°10'39410.2
2017-Nov-16 05:55N 37°21' E 025°55'410.3
2017-Nov-16 05:30N 37°25' E 025°52'510.3
2017-Nov-16 05:00N 37°30' E 025°49'510.5
2017-Nov-16 04:30N 37°35' E 025°48'510.8
2017-Nov-16 04:00N 37°40' E 025°48'  
2017-Nov-12 15:59N 44°21' E 037°13'714.0
2017-Nov-12 15:30N 44°24' E 037°21'714.1
2017-Nov-12 15:00N 44°27' E 037°30'713.7
2017-Nov-12 14:30N 44°31' E 037°39'713.2
2017-Nov-12 14:00N 44°34' E 037°46'612.7
2017-Nov-12 13:30N 44°40' E 037°50'4 7.7
2017-Nov-12 13:00N 44°43' E 037°48'1 1.6
2017-Nov-12 12:30N 44°44' E 037°47'0 0.0
2017-Nov-12 12:00N 44°44' E 037°47'0 0.0
2017-Nov-12 11:29N 44°44' E 037°47'0 0.0
2017-Nov-12 10:59N 44°44' E 037°47'0 0.0
2017-Nov-12 10:29N 44°44' E 037°47'0 0.0
2017-Nov-12 09:59N 44°44' E 037°47'0 0.0
2017-Nov-12 09:29N 44°44' E 037°47'0 0.0
2017-Nov-12 08:59N 44°44' E 037°47'0 0.0
2017-Nov-12 08:27N 44°44' E 037°47'0 0.0
2017-Nov-12 07:59N 44°44' E 037°47'0 0.0
2017-Nov-12 07:29N 44°44' E 037°47'0 0.0
2017-Nov-12 06:59N 44°44' E 037°47'0 0.0
2017-Nov-12 06:29N 44°44' E 037°47'0 0.0
2017-Nov-12 05:59N 44°44' E 037°47'0 0.0
2017-Nov-12 05:29N 44°44' E 037°47'0 0.0
2017-Nov-12 04:59N 44°44' E 037°47'0 0.0
2017-Nov-12 04:29N 44°44' E 037°47'0 0.0
2017-Nov-12 03:59N 44°44' E 037°47'0 0.0
2017-Nov-12 03:29N 44°44' E 037°47'0 0.0
2017-Nov-12 02:59N 44°44' E 037°47'0 0.0
2017-Nov-12 02:29N 44°44' E 037°47'0 0.0
2017-Nov-12 01:57N 44°44' E 037°47'0 0.0
2017-Nov-12 01:29N 44°44' E 037°47'0 0.0
2017-Nov-12 00:59N 44°44' E 037°47'0 0.0
2017-Nov-12 00:29N 44°44' E 037°47'0 0.0
2017-Nov-11 23:59N 44°44' E 037°47'0 0.0
2017-Nov-11 23:29N 44°44' E 037°47'0 0.0
2017-Nov-11 22:59N 44°44' E 037°47'0 0.0
2017-Nov-11 22:29N 44°44' E 037°47'0 0.0
2017-Nov-11 22:01N 44°44' E 037°47'0 0.0
2017-Nov-11 21:30N 44°44' E 037°47'0 0.0
2017-Nov-11 21:00N 44°44' E 037°47'0 0.0
2017-Nov-11 20:30N 44°44' E 037°47'0 0.0
2017-Nov-11 20:00N 44°44' E 037°47'0 0.0
2017-Nov-11 19:30N 44°44' E 037°47'0 0.0
2017-Nov-11 19:00N 44°44' E 037°47'0 0.0
2017-Nov-11 18:30N 44°44' E 037°47'0 0.0
2017-Nov-11 18:01N 44°44' E 037°47'0 0.0
2017-Nov-11 17:28N 44°44' E 037°47'0 0.0
2017-Nov-11 16:58N 44°44' E 037°47'0 0.0
2017-Nov-11 16:22N 44°44' E 037°47'0 0.0
2017-Nov-11 15:58N 44°44' E 037°47'0 0.0
2017-Nov-11 15:28N 44°44' E 037°47'0 0.0
2017-Nov-11 14:56N 44°44' E 037°47'0 0.0
2017-Nov-11 14:28N 44°44' E 037°47'0 0.0
2017-Nov-11 13:58N 44°44' E 037°47'0 0.0
2017-Nov-11 13:28N 44°44' E 037°47'0 0.0
2017-Nov-11 12:58N 44°44' E 037°47'0 0.0
2017-Nov-11 12:25N 44°44' E 037°47'0 0.0
2017-Nov-11 11:58N 44°44' E 037°47'0 0.0
2017-Nov-11 11:28N 44°44' E 037°47'0 0.0
2017-Nov-11 10:58N 44°44' E 037°47'0 0.0
2017-Nov-11 10:29N 44°44' E 037°47'0 0.6
2017-Nov-11 10:00N 44°44' E 037°48'3 5.9
2017-Nov-11 09:30N 44°41' E 037°50'4 8.5
2017-Nov-11 09:00N 44°37' E 037°52'510.3
2017-Nov-11 08:30N 44°32' E 037°50'713.5
2017-Nov-11 08:00N 44°28' E 037°42'713.2
2017-Nov-11 07:30N 44°23' E 037°37'4 8.7
2017-Nov-11 07:00N 44°22' E 037°31'510.1
2017-Nov-11 06:31N 44°22' E 037°24'  
2017-Nov-08 20:01N 37°40' E 025°48'115.3
2017-Nov-08 19:58N 37°39' E 025°48'714.8
2017-Nov-08 19:30N 37°32' E 025°48'714.7
2017-Nov-08 19:00N 37°25' E 025°52'  
Track history (hours):
 
Tides and Currents Weather Stations Pressure Air Temp Water Temp Dewpoint Dewpoint Depression Visibility Wind Speed Wind Dir Waves Ship Positions

As Floriana

Last reported at 2017-Nov-18 10:14 UTC. Time now 2017-Nov-24 09:28 UTC.
Position N 31°24' E 032°26'.

Length 166 m; draft 9.6 m.

Type: Cargo ship. MMSI: 255805622.

Date/timePositionNaut miles runAvg speedWind from/ knotsBaromVisibWave heightAir tempDewpointWater temp
2017-Nov-18 10:14N 31°24' E 032°26'0 0.0
2017-Nov-18 09:59N 31°24' E 032°26'0 0.0
2017-Nov-18 09:23N 31°24' E 032°26'0 0.0
2017-Nov-18 08:13N 31°24' E 032°26'34 5.7
2017-Nov-18 02:21N 31°45' E 031°56'4 9.4
2017-Nov-18 01:56N 31°48' E 031°52'17 9.5
2017-Nov-18 00:06N 31°59' E 031°37'27 9.4
2017-Nov-17 21:13N 32°19' E 031°15'3 9.2
2017-Nov-17 20:56N 32°21' E 031°13'4 9.1
2017-Nov-17 20:30N 32°24' E 031°10'39410.2
2017-Nov-16 05:55N 37°21' E 025°55'410.3
2017-Nov-16 05:30N 37°25' E 025°52'510.3
2017-Nov-16 05:00N 37°30' E 025°49'510.5
2017-Nov-16 04:30N 37°35' E 025°48'510.8
2017-Nov-16 04:00N 37°40' E 025°48'  
2017-Nov-12 15:59N 44°21' E 037°13'714.0
2017-Nov-12 15:30N 44°24' E 037°21'714.1
2017-Nov-12 15:00N 44°27' E 037°30'713.7
2017-Nov-12 14:30N 44°31' E 037°39'713.2
2017-Nov-12 14:00N 44°34' E 037°46'612.7
2017-Nov-12 13:30N 44°40' E 037°50'4 7.7
2017-Nov-12 13:00N 44°43' E 037°48'1 1.6
2017-Nov-12 12:30N 44°44' E 037°47'0 0.0
2017-Nov-12 12:00N 44°44' E 037°47'0 0.0
2017-Nov-12 11:29N 44°44' E 037°47'0 0.0
2017-Nov-12 10:59N 44°44' E 037°47'0 0.0
2017-Nov-12 10:29N 44°44' E 037°47'0 0.0
2017-Nov-12 09:59N 44°44' E 037°47'0 0.0
2017-Nov-12 09:29N 44°44' E 037°47'0 0.0
2017-Nov-12 08:59N 44°44' E 037°47'0 0.0
2017-Nov-12 08:27N 44°44' E 037°47'0 0.0
2017-Nov-12 07:59N 44°44' E 037°47'0 0.0
2017-Nov-12 07:29N 44°44' E 037°47'0 0.0
2017-Nov-12 06:59N 44°44' E 037°47'0 0.0
2017-Nov-12 06:29N 44°44' E 037°47'0 0.0
2017-Nov-12 05:59N 44°44' E 037°47'0 0.0
2017-Nov-12 05:29N 44°44' E 037°47'0 0.0
2017-Nov-12 04:59N 44°44' E 037°47'0 0.0
2017-Nov-12 04:29N 44°44' E 037°47'0 0.0
2017-Nov-12 03:59N 44°44' E 037°47'0 0.0
2017-Nov-12 03:29N 44°44' E 037°47'0 0.0
2017-Nov-12 02:59N 44°44' E 037°47'0 0.0
2017-Nov-12 02:29N 44°44' E 037°47'0 0.0
2017-Nov-12 01:57N 44°44' E 037°47'0 0.0
2017-Nov-12 01:29N 44°44' E 037°47'0 0.0
2017-Nov-12 00:59N 44°44' E 037°47'0 0.0
2017-Nov-12 00:29N 44°44' E 037°47'0 0.0
2017-Nov-11 23:59N 44°44' E 037°47'0 0.0
2017-Nov-11 23:29N 44°44' E 037°47'0 0.0
2017-Nov-11 22:59N 44°44' E 037°47'0 0.0
2017-Nov-11 22:29N 44°44' E 037°47'0 0.0
2017-Nov-11 22:01N 44°44' E 037°47'0 0.0
2017-Nov-11 21:30N 44°44' E 037°47'0 0.0
2017-Nov-11 21:00N 44°44' E 037°47'0 0.0
2017-Nov-11 20:30N 44°44' E 037°47'0 0.0
2017-Nov-11 20:00N 44°44' E 037°47'0 0.0
2017-Nov-11 19:30N 44°44' E 037°47'0 0.0
2017-Nov-11 19:00N 44°44' E 037°47'0 0.0
2017-Nov-11 18:30N 44°44' E 037°47'0 0.0
2017-Nov-11 18:01N 44°44' E 037°47'0 0.0
2017-Nov-11 17:28N 44°44' E 037°47'0 0.0
2017-Nov-11 16:58N 44°44' E 037°47'0 0.0
2017-Nov-11 16:22N 44°44' E 037°47'0 0.0
2017-Nov-11 15:58N 44°44' E 037°47'0 0.0
2017-Nov-11 15:28N 44°44' E 037°47'0 0.0
2017-Nov-11 14:56N 44°44' E 037°47'0 0.0
2017-Nov-11 14:28N 44°44' E 037°47'0 0.0
2017-Nov-11 13:58N 44°44' E 037°47'0 0.0
2017-Nov-11 13:28N 44°44' E 037°47'0 0.0
2017-Nov-11 12:58N 44°44' E 037°47'0 0.0
2017-Nov-11 12:25N 44°44' E 037°47'0 0.0
2017-Nov-11 11:58N 44°44' E 037°47'0 0.0
2017-Nov-11 11:28N 44°44' E 037°47'0 0.0
2017-Nov-11 10:58N 44°44' E 037°47'0 0.0
2017-Nov-11 10:29N 44°44' E 037°47'0 0.6
2017-Nov-11 10:00N 44°44' E 037°48'3 5.9
2017-Nov-11 09:30N 44°41' E 037°50'4 8.5
2017-Nov-11 09:00N 44°37' E 037°52'510.3
2017-Nov-11 08:30N 44°32' E 037°50'713.5
2017-Nov-11 08:00N 44°28' E 037°42'713.2
2017-Nov-11 07:30N 44°23' E 037°37'4 8.7
2017-Nov-11 07:00N 44°22' E 037°31'510.1
2017-Nov-11 06:31N 44°22' E 037°24'  
2017-Nov-08 20:01N 37°40' E 025°48'115.3
2017-Nov-08 19:58N 37°39' E 025°48'714.8
2017-Nov-08 19:30N 37°32' E 025°48'714.7
2017-Nov-08 19:00N 37°25' E 025°52'  

Dump ship's entire track history